Terminal Aerodrome Forecast
Issued by NWS

Home | Current Version | Previous Version | Text Only | Print | Product List | Glossary On
Versions: 1 2 3 4 5 6 7 8 9 10 11 12 13 14 15 16 17 18 19 20 21 22 23 24 25 26
929
FTUS45 KLKN 180533
TAFEKO
TAF
KEKO 180533Z 1806/1906 24010KT P6SM SCT200
     FM181000 23012G22KT P6SM SCT035 BKN060
     FM181400 25020G30KT P6SM VCSH SCT030 OVC045
     FM181700 27025G35KT 2SM -SN BKN020 OVC030
     FM182000 27025G35KT P6SM VCSH SCT020 OVC030
      TEMPO 1820/1824 3SM -SN BKN020
     FM190000 28012KT 3SM -SHSN BR OVC025=

USA.gov is the U.S. government's official web portal to all federal, state and local government web resources and services.